sensor_id;sensor_type;location;lat;lon;timestamp;temperature;humidity
28171;DHT22;15458;53.346;-1.688;2023-01-10T00:01:21;5.80;99.90
28171;DHT22;15458;53.346;-1.688;2023-01-10T00:03:47;5.80;99.90
28171;DHT22;15458;53.346;-1.688;2023-01-10T00:06:13;5.70;99.90
28171;DHT22;15458;53.346;-1.688;2023-01-10T00:08:39;5.70;99.90
28171;DHT22;15458;53.346;-1.688;2023-01-10T00:11:04;5.70;99.90
28171;DHT22;15458;53.346;-1.688;2023-01-10T00:13:54;5.70;99.90
28171;DHT22;15458;53.346;-1.688;2023-01-10T00:16:20;5.70;99.90
28171;DHT22;15458;53.346;-1.688;2023-01-10T00:18:45;5.70;99.90
28171;DHT22;15458;53.346;-1.688;2023-01-10T00:21:11;5.70;99.90
28171;DHT22;15458;53.346;-1.688;2023-01-10T00:23:39;5.70;99.90
28171;DHT22;15458;53.346;-1.688;2023-01-10T00:26:05;5.70;99.90
28171;DHT22;15458;53.346;-1.688;2023-01-10T00:28:31;5.70;99.90
28171;DHT22;15458;53.346;-1.688;2023-01-10T00:30:59;5.70;99.90
28171;DHT22;15458;53.346;-1.688;2023-01-10T00:33:29;5.80;99.90
28171;DHT22;15458;53.346;-1.688;2023-01-10T00:36:03;5.80;99.90
28171;DHT22;15458;53.346;-1.688;2023-01-10T00:38:31;5.80;99.90
28171;DHT22;15458;53.346;-1.688;2023-01-10T00:41:00;5.80;99.90
28171;DHT22;15458;53.346;-1.688;2023-01-10T00:43:26;5.80;99.90
28171;DHT22;15458;53.346;-1.688;2023-01-10T00:46:10;5.80;99.90
28171;DHT22;15458;53.346;-1.688;2023-01-10T00:48:36;5.70;99.90
28171;DHT22;15458;53.346;-1.688;2023-01-10T00:51:03;5.70;99.90
28171;DHT22;15458;53.346;-1.688;2023-01-10T00:53:29;5.70;99.90
28171;DHT22;15458;53.346;-1.688;2023-01-10T00:55:55;5.70;99.90
28171;DHT22;15458;53.346;-1.688;2023-01-10T00:58:21;5.60;99.90
28171;DHT22;15458;53.346;-1.688;2023-01-10T01:00:48;5.60;99.90
28171;DHT22;15458;53.346;-1.688;2023-01-10T01:03:15;5.60;99.90
28171;DHT22;15458;53.346;-1.688;2023-01-10T01:05:45;5.60;99.90
28171;DHT22;15458;53.346;-1.688;2023-01-10T01:08:12;5.50;99.90
28171;DHT22;15458;53.346;-1.688;2023-01-10T01:10:38;5.50;99.90
28171;DHT22;15458;53.346;-1.688;2023-01-10T01:13:11;5.50;99.90
28171;DHT22;15458;53.346;-1.688;2023-01-10T01:15:37;5.50;99.90
28171;DHT22;15458;53.346;-1.688;2023-01-10T01:18:03;5.40;99.90
28171;DHT22;15458;53.346;-1.688;2023-01-10T01:20:29;5.40;99.90
28171;DHT22;15458;53.346;-1.688;2023-01-10T01:22:55;5.40;99.90
28171;DHT22;15458;53.346;-1.688;2023-01-10T01:25:21;5.30;99.90
28171;DHT22;15458;53.346;-1.688;2023-01-10T01:27:47;5.30;99.90
28171;DHT22;15458;53.346;-1.688;2023-01-10T01:30:13;5.20;99.90
28171;DHT22;15458;53.346;-1.688;2023-01-10T01:32:39;5.20;99.90
28171;DHT22;15458;53.346;-1.688;2023-01-10T01:35:07;5.10;99.90
28171;DHT22;15458;53.346;-1.688;2023-01-10T01:37:33;5.10;99.90
28171;DHT22;15458;53.346;-1.688;2023-01-10T01:39:58;5.10;99.90
28171;DHT22;15458;53.346;-1.688;2023-01-10T01:42:33;5.10;99.90
28171;DHT22;15458;53.346;-1.688;2023-01-10T01:50:31;5.00;99.90
28171;DHT22;15458;53.346;-1.688;2023-01-10T01:53:02;5.00;99.90
28171;DHT22;15458;53.346;-1.688;2023-01-10T01:55:32;5.00;99.90
28171;DHT22;15458;53.346;-1.688;2023-01-10T01:58:00;4.90;99.90
28171;DHT22;15458;53.346;-1.688;2023-01-10T02:00:28;4.90;99.90
28171;DHT22;15458;53.346;-1.688;2023-01-10T02:02:56;4.90;99.90
28171;DHT22;15458;53.346;-1.688;2023-01-10T02:05:23;4.90;99.90
28171;DHT22;15458;53.346;-1.688;2023-01-10T02:07:52;4.90;99.90
28171;DHT22;15458;53.346;-1.688;2023-01-10T02:10:44;4.90;99.90
28171;DHT22;15458;53.346;-1.688;2023-01-10T02:13:10;4.90;99.90
28171;DHT22;15458;53.346;-1.688;2023-01-10T02:15:38;4.90;99.90
28171;DHT22;15458;53.346;-1.688;2023-01-10T02:18:04;4.80;99.90
28171;DHT22;15458;53.346;-1.688;2023-01-10T02:20:47;4.90;99.90
28171;DHT22;15458;53.346;-1.688;2023-01-10T02:28:31;4.90;99.90
28171;DHT22;15458;53.346;-1.688;2023-01-10T02:34:17;4.90;99.90
28171;DHT22;15458;53.346;-1.688;2023-01-10T02:44:59;4.80;99.90
28171;DHT22;15458;53.346;-1.688;2023-01-10T02:47:34;4.80;99.90
28171;DHT22;15458;53.346;-1.688;2023-01-10T02:53:00;4.70;99.90
28171;DHT22;15458;53.346;-1.688;2023-01-10T02:55:40;4.70;99.90
28171;DHT22;15458;53.346;-1.688;2023-01-10T02:58:48;4.80;99.90
28171;DHT22;15458;53.346;-1.688;2023-01-10T03:09:04;4.80;99.90
28171;DHT22;15458;53.346;-1.688;2023-01-10T03:11:32;4.80;99.90
28171;DHT22;15458;53.346;-1.688;2023-01-10T03:14:11;4.70;99.90
28171;DHT22;15458;53.346;-1.688;2023-01-10T03:16:40;4.80;99.90
28171;DHT22;15458;53.346;-1.688;2023-01-10T03:19:10;4.80;99.90
28171;DHT22;15458;53.346;-1.688;2023-01-10T03:21:38;4.80;99.90
28171;DHT22;15458;53.346;-1.688;2023-01-10T03:24:10;4.80;99.90
28171;DHT22;15458;53.346;-1.688;2023-01-10T03:29:41;4.80;99.90
28171;DHT22;15458;53.346;-1.688;2023-01-10T03:32:09;4.80;99.90
28171;DHT22;15458;53.346;-1.688;2023-01-10T03:34:36;4.80;99.90
28171;DHT22;15458;53.346;-1.688;2023-01-10T03:40:14;4.80;99.90
28171;DHT22;15458;53.346;-1.688;2023-01-10T03:45:33;4.80;99.90
28171;DHT22;15458;53.346;-1.688;2023-01-10T03:48:04;4.90;99.90
28171;DHT22;15458;53.346;-1.688;2023-01-10T03:50:32;4.90;99.90
28171;DHT22;15458;53.346;-1.688;2023-01-10T03:52:58;4.90;99.90
28171;DHT22;15458;53.346;-1.688;2023-01-10T03:55:26;4.90;99.90
28171;DHT22;15458;53.346;-1.688;2023-01-10T03:57:53;4.90;99.90
28171;DHT22;15458;53.346;-1.688;2023-01-10T04:00:19;5.00;99.90
28171;DHT22;15458;53.346;-1.688;2023-01-10T04:02:45;5.00;99.90
28171;DHT22;15458;53.346;-1.688;2023-01-10T04:05:11;5.00;99.90
28171;DHT22;15458;53.346;-1.688;2023-01-10T04:07:36;5.00;99.90
28171;DHT22;15458;53.346;-1.688;2023-01-10T04:10:06;5.00;99.90
28171;DHT22;15458;53.346;-1.688;2023-01-10T04:12:32;5.10;99.90
28171;DHT22;15458;53.346;-1.688;2023-01-10T04:14:57;5.10;99.90
28171;DHT22;15458;53.346;-1.688;2023-01-10T04:17:23;5.10;99.90
28171;DHT22;15458;53.346;-1.688;2023-01-10T04:19:49;5.10;99.90
28171;DHT22;15458;53.346;-1.688;2023-01-10T04:22:15;5.10;99.90
28171;DHT22;15458;53.346;-1.688;2023-01-10T04:24:40;5.10;99.90
28171;DHT22;15458;53.346;-1.688;2023-01-10T04:27:08;5.10;99.90
28171;DHT22;15458;53.346;-1.688;2023-01-10T04:29:34;5.10;99.90
28171;DHT22;15458;53.346;-1.688;2023-01-10T04:31:59;5.10;99.90
28171;DHT22;15458;53.346;-1.688;2023-01-10T04:34:25;5.10;99.90
28171;DHT22;15458;53.346;-1.688;2023-01-10T04:36:51;5.10;99.90
28171;DHT22;15458;53.346;-1.688;2023-01-10T04:39:16;5.10;99.90
28171;DHT22;15458;53.346;-1.688;2023-01-10T04:41:42;5.10;99.90
28171;DHT22;15458;53.346;-1.688;2023-01-10T04:44:08;5.00;99.90
28171;DHT22;15458;53.346;-1.688;2023-01-10T04:46:33;5.10;99.90
28171;DHT22;15458;53.346;-1.688;2023-01-10T04:48:59;5.00;99.90
28171;DHT22;15458;53.346;-1.688;2023-01-10T04:51:26;5.10;99.90
28171;DHT22;15458;53.346;-1.688;2023-01-10T04:53:52;5.00;99.90
28171;DHT22;15458;53.346;-1.688;2023-01-10T04:56:20;5.00;99.90
28171;DHT22;15458;53.346;-1.688;2023-01-10T04:58:47;5.00;99.90
28171;DHT22;15458;53.346;-1.688;2023-01-10T05:01:23;5.00;99.90
28171;DHT22;15458;53.346;-1.688;2023-01-10T05:03:51;5.00;99.90
28171;DHT22;15458;53.346;-1.688;2023-01-10T05:06:18;5.00;99.90
28171;DHT22;15458;53.346;-1.688;2023-01-10T05:08:44;5.00;99.90
28171;DHT22;15458;53.346;-1.688;2023-01-10T05:11:10;5.00;99.90
28171;DHT22;15458;53.346;-1.688;2023-01-10T05:13:36;5.00;99.90
28171;DHT22;15458;53.346;-1.688;2023-01-10T05:16:02;5.00;99.90
28171;DHT22;15458;53.346;-1.688;2023-01-10T05:18:28;5.00;99.90
28171;DHT22;15458;53.346;-1.688;2023-01-10T05:21:08;5.00;99.90
28171;DHT22;15458;53.346;-1.688;2023-01-10T05:23:33;5.00;99.90
28171;DHT22;15458;53.346;-1.688;2023-01-10T05:26:10;5.10;99.90
28171;DHT22;15458;53.346;-1.688;2023-01-10T05:28:37;5.00;99.90
28171;DHT22;15458;53.346;-1.688;2023-01-10T05:31:05;5.10;99.90
28171;DHT22;15458;53.346;-1.688;2023-01-10T05:33:31;5.00;99.90
28171;DHT22;15458;53.346;-1.688;2023-01-10T05:35:58;5.10;99.90
28171;DHT22;15458;53.346;-1.688;2023-01-10T05:38:24;5.00;99.90
28171;DHT22;15458;53.346;-1.688;2023-01-10T05:40:54;5.00;99.90
28171;DHT22;15458;53.346;-1.688;2023-01-10T05:43:20;5.00;99.90
28171;DHT22;15458;53.346;-1.688;2023-01-10T05:45:46;5.00;99.90
28171;DHT22;15458;53.346;-1.688;2023-01-10T05:48:11;5.00;99.90
28171;DHT22;15458;53.346;-1.688;2023-01-10T05:50:37;5.00;99.90
28171;DHT22;15458;53.346;-1.688;2023-01-10T05:53:03;5.00;99.90
28171;DHT22;15458;53.346;-1.688;2023-01-10T05:55:30;5.00;99.90
28171;DHT22;15458;53.346;-1.688;2023-01-10T05:57:56;4.90;99.90
28171;DHT22;15458;53.346;-1.688;2023-01-10T06:00:22;5.00;99.90
28171;DHT22;15458;53.346;-1.688;2023-01-10T06:02:48;5.00;99.90
28171;DHT22;15458;53.346;-1.688;2023-01-10T06:05:13;5.00;99.90
28171;DHT22;15458;53.346;-1.688;2023-01-10T06:07:39;4.90;99.90
28171;DHT22;15458;53.346;-1.688;2023-01-10T06:10:05;5.00;99.90
28171;DHT22;15458;53.346;-1.688;2023-01-10T06:12:31;4.90;99.90
28171;DHT22;15458;53.346;-1.688;2023-01-10T06:14:56;4.90;99.90
28171;DHT22;15458;53.346;-1.688;2023-01-10T06:17:22;4.90;99.90
28171;DHT22;15458;53.346;-1.688;2023-01-10T06:19:48;4.90;99.90
28171;DHT22;15458;53.346;-1.688;2023-01-10T06:22:13;4.90;99.90
28171;DHT22;15458;53.346;-1.688;2023-01-10T06:24:39;4.90;99.90
28171;DHT22;15458;53.346;-1.688;2023-01-10T06:27:06;4.90;99.90
28171;DHT22;15458;53.346;-1.688;2023-01-10T06:29:32;4.90;99.90
28171;DHT22;15458;53.346;-1.688;2023-01-10T06:31:58;4.80;99.90
28171;DHT22;15458;53.346;-1.688;2023-01-10T06:34:23;4.80;99.90
28171;DHT22;15458;53.346;-1.688;2023-01-10T06:36:49;4.80;99.90
28171;DHT22;15458;53.346;-1.688;2023-01-10T06:39:14;4.80;99.90
28171;DHT22;15458;53.346;-1.688;2023-01-10T06:41:40;4.80;99.90
28171;DHT22;15458;53.346;-1.688;2023-01-10T06:44:06;4.80;99.90
28171;DHT22;15458;53.346;-1.688;2023-01-10T06:46:31;4.80;99.90
28171;DHT22;15458;53.346;-1.688;2023-01-10T06:48:57;4.80;99.90
28171;DHT22;15458;53.346;-1.688;2023-01-10T06:51:23;4.80;99.90
28171;DHT22;15458;53.346;-1.688;2023-01-10T06:53:48;4.80;99.90
28171;DHT22;15458;53.346;-1.688;2023-01-10T06:56:14;4.70;99.90
28171;DHT22;15458;53.346;-1.688;2023-01-10T06:58:40;4.70;99.90
28171;DHT22;15458;53.346;-1.688;2023-01-10T07:01:11;4.70;99.90
28171;DHT22;15458;53.346;-1.688;2023-01-10T07:03:37;4.70;99.90
28171;DHT22;15458;53.346;-1.688;2023-01-10T07:06:05;4.70;99.90
28171;DHT22;15458;53.346;-1.688;2023-01-10T07:08:35;4.70;99.90
28171;DHT22;15458;53.346;-1.688;2023-01-10T07:11:01;4.70;99.90
28171;DHT22;15458;53.346;-1.688;2023-01-10T07:13:27;4.60;99.90
28171;DHT22;15458;53.346;-1.688;2023-01-10T07:16:03;4.60;99.90
28171;DHT22;15458;53.346;-1.688;2023-01-10T07:18:29;4.60;99.90
28171;DHT22;15458;53.346;-1.688;2023-01-10T07:20:56;4.60;99.90
28171;DHT22;15458;53.346;-1.688;2023-01-10T07:23:24;4.60;99.90
28171;DHT22;15458;53.346;-1.688;2023-01-10T07:25:50;4.50;99.90
28171;DHT22;15458;53.346;-1.688;2023-01-10T07:28:16;4.50;99.90
28171;DHT22;15458;53.346;-1.688;2023-01-10T07:30:42;4.50;99.90
28171;DHT22;15458;53.346;-1.688;2023-01-10T07:33:08;4.50;99.90
28171;DHT22;15458;53.346;-1.688;2023-01-10T07:35:33;4.50;99.90
28171;DHT22;15458;53.346;-1.688;2023-01-10T07:38:00;4.50;99.90
28171;DHT22;15458;53.346;-1.688;2023-01-10T07:40:30;4.50;99.90
28171;DHT22;15458;53.346;-1.688;2023-01-10T07:42:58;4.50;99.90
28171;DHT22;15458;53.346;-1.688;2023-01-10T07:45:26;4.50;99.90
28171;DHT22;15458;53.346;-1.688;2023-01-10T07:48:00;4.50;99.90
28171;DHT22;15458;53.346;-1.688;2023-01-10T07:50:28;4.50;99.90
28171;DHT22;15458;53.346;-1.688;2023-01-10T07:52:55;4.50;99.90
28171;DHT22;15458;53.346;-1.688;2023-01-10T07:55:21;4.40;99.90
28171;DHT22;15458;53.346;-1.688;2023-01-10T07:57:48;4.40;99.90
28171;DHT22;15458;53.346;-1.688;2023-01-10T08:00:17;4.50;99.90
28171;DHT22;15458;53.346;-1.688;2023-01-10T08:02:43;4.50;99.90
28171;DHT22;15458;53.346;-1.688;2023-01-10T08:05:09;4.40;99.90
28171;DHT22;15458;53.346;-1.688;2023-01-10T08:07:35;4.40;99.90
28171;DHT22;15458;53.346;-1.688;2023-01-10T08:10:01;4.40;99.90
28171;DHT22;15458;53.346;-1.688;2023-01-10T08:12:27;4.50;99.90
28171;DHT22;15458;53.346;-1.688;2023-01-10T08:14:53;4.50;99.90
28171;DHT22;15458;53.346;-1.688;2023-01-10T08:17:18;4.50;99.90
28171;DHT22;15458;53.346;-1.688;2023-01-10T08:19:45;4.50;99.90
28171;DHT22;15458;53.346;-1.688;2023-01-10T08:22:11;4.50;99.90
28171;DHT22;15458;53.346;-1.688;2023-01-10T08:24:36;4.50;99.90
28171;DHT22;15458;53.346;-1.688;2023-01-10T08:27:03;4.50;99.90
28171;DHT22;15458;53.346;-1.688;2023-01-10T08:29:29;4.60;99.90
28171;DHT22;15458;53.346;-1.688;2023-01-10T08:31:54;4.60;99.90
28171;DHT22;15458;53.346;-1.688;2023-01-10T08:34:20;4.60;99.90
28171;DHT22;15458;53.346;-1.688;2023-01-10T08:36:50;4.60;99.90
28171;DHT22;15458;53.346;-1.688;2023-01-10T08:39:16;4.60;99.90
28171;DHT22;15458;53.346;-1.688;2023-01-10T08:41:42;4.60;99.90
28171;DHT22;15458;53.346;-1.688;2023-01-10T08:44:08;4.70;99.90
28171;DHT22;15458;53.346;-1.688;2023-01-10T08:46:36;4.70;99.90
28171;DHT22;15458;53.346;-1.688;2023-01-10T08:49:11;4.80;99.90
28171;DHT22;15458;53.346;-1.688;2023-01-10T08:51:44;4.80;99.90
28171;DHT22;15458;53.346;-1.688;2023-01-10T08:54:22;4.80;99.90
28171;DHT22;15458;53.346;-1.688;2023-01-10T08:56:54;4.90;99.90
28171;DHT22;15458;53.346;-1.688;2023-01-10T08:59:24;4.90;99.90
28171;DHT22;15458;53.346;-1.688;2023-01-10T09:02:00;4.90;99.90
28171;DHT22;15458;53.346;-1.688;2023-01-10T09:04:38;4.90;99.90
28171;DHT22;15458;53.346;-1.688;2023-01-10T09:07:08;4.90;99.90
28171;DHT22;15458;53.346;-1.688;2023-01-10T09:09:35;4.90;99.90
28171;DHT22;15458;53.346;-1.688;2023-01-10T09:12:01;4.90;99.90
28171;DHT22;15458;53.346;-1.688;2023-01-10T09:14:50;4.90;99.90
28171;DHT22;15458;53.346;-1.688;2023-01-10T09:17:21;5.00;99.90
28171;DHT22;15458;53.346;-1.688;2023-01-10T09:20:09;5.00;99.90
28171;DHT22;15458;53.346;-1.688;2023-01-10T09:22:46;5.00;99.90
28171;DHT22;15458;53.346;-1.688;2023-01-10T09:25:11;5.00;99.90
28171;DHT22;15458;53.346;-1.688;2023-01-10T09:27:45;5.10;99.90
28171;DHT22;15458;53.346;-1.688;2023-01-10T09:30:17;5.10;99.90
28171;DHT22;15458;53.346;-1.688;2023-01-10T09:32:56;5.10;99.90
28171;DHT22;15458;53.346;-1.688;2023-01-10T09:35:26;5.10;99.90
28171;DHT22;15458;53.346;-1.688;2023-01-10T09:37:58;5.10;99.90
28171;DHT22;15458;53.346;-1.688;2023-01-10T09:44:00;5.20;99.90
28171;DHT22;15458;53.346;-1.688;2023-01-10T09:47:00;5.20;99.90
28171;DHT22;15458;53.346;-1.688;2023-01-10T09:50:18;5.20;99.90
28171;DHT22;15458;53.346;-1.688;2023-01-10T09:53:23;5.30;99.90
28171;DHT22;15458;53.346;-1.688;2023-01-10T09:55:56;5.30;99.90
28171;DHT22;15458;53.346;-1.688;2023-01-10T09:58:30;5.20;99.90
28171;DHT22;15458;53.346;-1.688;2023-01-10T10:01:26;5.30;99.90
28171;DHT22;15458;53.346;-1.688;2023-01-10T10:06:56;5.40;99.90
28171;DHT22;15458;53.346;-1.688;2023-01-10T10:09:36;5.30;99.90
28171;DHT22;15458;53.346;-1.688;2023-01-10T10:12:47;5.40;99.90
28171;DHT22;15458;53.346;-1.688;2023-01-10T10:15:42;5.40;99.90
28171;DHT22;15458;53.346;-1.688;2023-01-10T10:24:45;5.60;99.90
28171;DHT22;15458;53.346;-1.688;2023-01-10T10:30:56;5.50;99.90
28171;DHT22;15458;53.346;-1.688;2023-01-10T10:33:42;5.60;99.90
28171;DHT22;15458;53.346;-1.688;2023-01-10T10:38:44;5.70;99.90
28171;DHT22;15458;53.346;-1.688;2023-01-10T10:41:28;5.70;99.90
28171;DHT22;15458;53.346;-1.688;2023-01-10T10:43:58;5.70;99.90
28171;DHT22;15458;53.346;-1.688;2023-01-10T10:46:31;5.80;99.90
28171;DHT22;15458;53.346;-1.688;2023-01-10T10:49:37;5.80;99.90
28171;DHT22;15458;53.346;-1.688;2023-01-10T10:52:26;5.90;99.90
28171;DHT22;15458;53.346;-1.688;2023-01-10T10:54:57;5.90;99.90
28171;DHT22;15458;53.346;-1.688;2023-01-10T10:57:28;6.00;99.90
28171;DHT22;15458;53.346;-1.688;2023-01-10T10:59:55;6.00;99.90
28171;DHT22;15458;53.346;-1.688;2023-01-10T11:02:31;6.10;99.90
28171;DHT22;15458;53.346;-1.688;2023-01-10T11:05:03;6.10;99.90
28171;DHT22;15458;53.346;-1.688;2023-01-10T11:07:39;6.20;99.90
28171;DHT22;15458;53.346;-1.688;2023-01-10T11:10:20;6.20;99.90
28171;DHT22;15458;53.346;-1.688;2023-01-10T11:13:13;6.30;99.90
28171;DHT22;15458;53.346;-1.688;2023-01-10T11:15:45;6.30;99.90
28171;DHT22;15458;53.346;-1.688;2023-01-10T11:18:18;6.40;99.90
28171;DHT22;15458;53.346;-1.688;2023-01-10T11:21:05;6.40;99.90
28171;DHT22;15458;53.346;-1.688;2023-01-10T11:26:27;6.50;99.90
28171;DHT22;15458;53.346;-1.688;2023-01-10T11:29:32;6.60;99.90
28171;DHT22;15458;53.346;-1.688;2023-01-10T11:32:08;6.70;99.90
28171;DHT22;15458;53.346;-1.688;2023-01-10T11:34:48;6.80;99.90
28171;DHT22;15458;53.346;-1.688;2023-01-10T11:37:31;6.80;99.90
28171;DHT22;15458;53.346;-1.688;2023-01-10T11:40:19;6.90;99.90
28171;DHT22;15458;53.346;-1.688;2023-01-10T11:42:46;7.00;99.90
28171;DHT22;15458;53.346;-1.688;2023-01-10T11:48:08;7.10;99.90
28171;DHT22;15458;53.346;-1.688;2023-01-10T11:50:42;7.20;99.90
28171;DHT22;15458;53.346;-1.688;2023-01-10T11:53:44;7.30;99.90
28171;DHT22;15458;53.346;-1.688;2023-01-10T11:56:23;7.40;99.90
28171;DHT22;15458;53.346;-1.688;2023-01-10T11:58:51;7.50;99.90
28171;DHT22;15458;53.346;-1.688;2023-01-10T12:01:30;7.60;99.90
28171;DHT22;15458;53.346;-1.688;2023-01-10T12:04:03;7.70;99.90
28171;DHT22;15458;53.346;-1.688;2023-01-10T12:06:33;7.80;99.90
28171;DHT22;15458;53.346;-1.688;2023-01-10T12:09:01;7.90;99.90
28171;DHT22;15458;53.346;-1.688;2023-01-10T12:11:31;8.00;99.90
28171;DHT22;15458;53.346;-1.688;2023-01-10T12:14:00;8.10;99.90
28171;DHT22;15458;53.346;-1.688;2023-01-10T12:16:30;8.20;99.90
28171;DHT22;15458;53.346;-1.688;2023-01-10T12:18:59;8.20;99.90
28171;DHT22;15458;53.346;-1.688;2023-01-10T12:21:38;8.30;99.90
28171;DHT22;15458;53.346;-1.688;2023-01-10T12:24:29;8.40;99.90
28171;DHT22;15458;53.346;-1.688;2023-01-10T12:26:53;8.40;99.90
28171;DHT22;15458;53.346;-1.688;2023-01-10T12:32:28;8.50;99.90
28171;DHT22;15458;53.346;-1.688;2023-01-10T12:35:27;8.60;99.90
28171;DHT22;15458;53.346;-1.688;2023-01-10T12:38:03;8.60;99.90
28171;DHT22;15458;53.346;-1.688;2023-01-10T12:40:46;8.70;99.90
28171;DHT22;15458;53.346;-1.688;2023-01-10T12:43:39;8.70;99.90
28171;DHT22;15458;53.346;-1.688;2023-01-10T12:46:44;8.80;99.90
28171;DHT22;15458;53.346;-1.688;2023-01-10T12:49:35;8.90;99.90
28171;DHT22;15458;53.346;-1.688;2023-01-10T12:52:11;8.90;99.90
28171;DHT22;15458;53.346;-1.688;2023-01-10T12:54:38;9.00;99.90
28171;DHT22;15458;53.346;-1.688;2023-01-10T12:57:38;9.10;99.90
28171;DHT22;15458;53.346;-1.688;2023-01-10T13:00:29;9.20;99.90
28171;DHT22;15458;53.346;-1.688;2023-01-10T13:02:58;9.30;99.90
28171;DHT22;15458;53.346;-1.688;2023-01-10T13:05:27;9.30;99.90
28171;DHT22;15458;53.346;-1.688;2023-01-10T13:08:02;9.40;99.90
28171;DHT22;15458;53.346;-1.688;2023-01-10T13:10:39;9.50;99.90
28171;DHT22;15458;53.346;-1.688;2023-01-10T13:18:32;9.60;99.90
28171;DHT22;15458;53.346;-1.688;2023-01-10T13:21:07;9.60;99.90
28171;DHT22;15458;53.346;-1.688;2023-01-10T13:24:20;9.60;99.90
28171;DHT22;15458;53.346;-1.688;2023-01-10T13:29:25;9.70;99.90
28171;DHT22;15458;53.346;-1.688;2023-01-10T13:31:57;9.80;99.90
28171;DHT22;15458;53.346;-1.688;2023-01-10T13:34:26;9.90;99.90
28171;DHT22;15458;53.346;-1.688;2023-01-10T13:37:03;9.90;99.90
28171;DHT22;15458;53.346;-1.688;2023-01-10T13:39:56;10.00;99.90
28171;DHT22;15458;53.346;-1.688;2023-01-10T13:42:31;10.10;99.90
28171;DHT22;15458;53.346;-1.688;2023-01-10T13:45:17;10.20;99.90
28171;DHT22;15458;53.346;-1.688;2023-01-10T13:52:45;10.40;99.90
28171;DHT22;15458;53.346;-1.688;2023-01-10T13:57:56;10.50;99.90
28171;DHT22;15458;53.346;-1.688;2023-01-10T14:03:46;10.50;99.90
28171;DHT22;15458;53.346;-1.688;2023-01-10T14:09:28;10.60;99.90
28171;DHT22;15458;53.346;-1.688;2023-01-10T14:11:59;10.60;99.90
28171;DHT22;15458;53.346;-1.688;2023-01-10T14:19:37;10.70;99.90
28171;DHT22;15458;53.346;-1.688;2023-01-10T14:22:04;10.70;99.90
28171;DHT22;15458;53.346;-1.688;2023-01-10T14:24:39;10.70;99.90
28171;DHT22;15458;53.346;-1.688;2023-01-10T14:27:10;10.80;99.90
28171;DHT22;15458;53.346;-1.688;2023-01-10T14:29:37;10.80;99.90
28171;DHT22;15458;53.346;-1.688;2023-01-10T14:32:05;10.80;99.90
28171;DHT22;15458;53.346;-1.688;2023-01-10T14:34:40;10.90;99.90
28171;DHT22;15458;53.346;-1.688;2023-01-10T14:37:37;10.90;99.90
28171;DHT22;15458;53.346;-1.688;2023-01-10T14:40:28;10.90;99.90
28171;DHT22;15458;53.346;-1.688;2023-01-10T14:43:01;11.00;99.90
28171;DHT22;15458;53.346;-1.688;2023-01-10T14:51:25;11.10;99.90
28171;DHT22;15458;53.346;-1.688;2023-01-10T14:54:02;11.10;99.90
28171;DHT22;15458;53.346;-1.688;2023-01-10T14:56:39;11.10;99.90
28171;DHT22;15458;53.346;-1.688;2023-01-10T14:59:30;11.20;99.90
28171;DHT22;15458;53.346;-1.688;2023-01-10T15:02:00;11.20;99.90
28171;DHT22;15458;53.346;-1.688;2023-01-10T15:04:29;11.30;99.90
28171;DHT22;15458;53.346;-1.688;2023-01-10T15:07:01;11.20;99.90
28171;DHT22;15458;53.346;-1.688;2023-01-10T15:09:29;11.20;99.90
28171;DHT22;15458;53.346;-1.688;2023-01-10T15:11:58;11.30;99.90
28171;DHT22;15458;53.346;-1.688;2023-01-10T15:14:27;11.30;99.90
28171;DHT22;15458;53.346;-1.688;2023-01-10T15:16:57;11.30;99.90
28171;DHT22;15458;53.346;-1.688;2023-01-10T15:19:30;11.30;99.90
28171;DHT22;15458;53.346;-1.688;2023-01-10T15:21:56;11.30;99.90
28171;DHT22;15458;53.346;-1.688;2023-01-10T15:24:34;11.30;99.90
28171;DHT22;15458;53.346;-1.688;2023-01-10T15:27:11;11.40;99.90
28171;DHT22;15458;53.346;-1.688;2023-01-10T15:29:39;11.40;99.90
28171;DHT22;15458;53.346;-1.688;2023-01-10T15:34:54;11.40;99.90
28171;DHT22;15458;53.346;-1.688;2023-01-10T15:37:26;11.40;99.90
28171;DHT22;15458;53.346;-1.688;2023-01-10T15:39:59;11.40;99.90
28171;DHT22;15458;53.346;-1.688;2023-01-10T15:42:26;11.40;99.90
28171;DHT22;15458;53.346;-1.688;2023-01-10T15:44:53;11.40;99.90
28171;DHT22;15458;53.346;-1.688;2023-01-10T15:47:49;11.40;99.90
28171;DHT22;15458;53.346;-1.688;2023-01-10T15:50:36;11.40;99.90
28171;DHT22;15458;53.346;-1.688;2023-01-10T15:53:10;11.40;99.90
28171;DHT22;15458;53.346;-1.688;2023-01-10T15:55:53;11.40;99.90
28171;DHT22;15458;53.346;-1.688;2023-01-10T15:58:28;11.40;99.90
28171;DHT22;15458;53.346;-1.688;2023-01-10T16:00:56;11.40;99.90
28171;DHT22;15458;53.346;-1.688;2023-01-10T16:03:38;11.40;99.90
28171;DHT22;15458;53.346;-1.688;2023-01-10T16:06:24;11.40;99.90
28171;DHT22;15458;53.346;-1.688;2023-01-10T16:08:55;11.40;99.90
28171;DHT22;15458;53.346;-1.688;2023-01-10T16:14:29;11.40;99.90
28171;DHT22;15458;53.346;-1.688;2023-01-10T16:17:00;11.40;99.90
28171;DHT22;15458;53.346;-1.688;2023-01-10T16:19:26;11.50;99.90
28171;DHT22;15458;53.346;-1.688;2023-01-10T16:21:54;11.50;99.90
28171;DHT22;15458;53.346;-1.688;2023-01-10T16:24:34;11.50;99.90
28171;DHT22;15458;53.346;-1.688;2023-01-10T16:27:08;11.50;99.90
28171;DHT22;15458;53.346;-1.688;2023-01-10T16:29:34;11.50;99.90
28171;DHT22;15458;53.346;-1.688;2023-01-10T16:32:12;11.50;99.90
28171;DHT22;15458;53.346;-1.688;2023-01-10T16:34:41;11.50;99.90
28171;DHT22;15458;53.346;-1.688;2023-01-10T16:37:10;11.50;99.90
28171;DHT22;15458;53.346;-1.688;2023-01-10T16:39:35;11.50;99.90
28171;DHT22;15458;53.346;-1.688;2023-01-10T16:42:01;11.60;99.90
28171;DHT22;15458;53.346;-1.688;2023-01-10T16:44:45;11.60;99.90
28171;DHT22;15458;53.346;-1.688;2023-01-10T16:47:11;11.60;99.90
28171;DHT22;15458;53.346;-1.688;2023-01-10T16:49:37;11.60;99.90
28171;DHT22;15458;53.346;-1.688;2023-01-10T16:52:03;11.60;99.90
28171;DHT22;15458;53.346;-1.688;2023-01-10T16:54:29;11.60;99.90
28171;DHT22;15458;53.346;-1.688;2023-01-10T16:59:44;11.70;99.90
28171;DHT22;15458;53.346;-1.688;2023-01-10T17:02:19;11.80;99.90
28171;DHT22;15458;53.346;-1.688;2023-01-10T17:04:46;11.70;99.90
28171;DHT22;15458;53.346;-1.688;2023-01-10T17:07:14;11.70;99.90
28171;DHT22;15458;53.346;-1.688;2023-01-10T17:09:40;11.70;99.90
28171;DHT22;15458;53.346;-1.688;2023-01-10T17:12:11;11.70;99.90
28171;DHT22;15458;53.346;-1.688;2023-01-10T17:14:50;11.70;99.90
28171;DHT22;15458;53.346;-1.688;2023-01-10T17:17:17;11.70;99.90
28171;DHT22;15458;53.346;-1.688;2023-01-10T17:19:48;11.70;99.90
28171;DHT22;15458;53.346;-1.688;2023-01-10T17:22:14;11.60;99.90
28171;DHT22;15458;53.346;-1.688;2023-01-10T17:24:43;11.60;99.90
28171;DHT22;15458;53.346;-1.688;2023-01-10T17:27:10;11.60;99.90
28171;DHT22;15458;53.346;-1.688;2023-01-10T17:29:37;11.60;99.90
28171;DHT22;15458;53.346;-1.688;2023-01-10T17:32:04;11.60;99.90
28171;DHT22;15458;53.346;-1.688;2023-01-10T17:34:30;11.60;99.90
28171;DHT22;15458;53.346;-1.688;2023-01-10T17:37:04;11.50;99.90
28171;DHT22;15458;53.346;-1.688;2023-01-10T17:39:29;11.50;99.90
28171;DHT22;15458;53.346;-1.688;2023-01-10T17:41:55;11.50;99.90
28171;DHT22;15458;53.346;-1.688;2023-01-10T17:44:23;11.50;99.90
28171;DHT22;15458;53.346;-1.688;2023-01-10T17:46:49;11.50;99.90